»·PEaware :: FJA1 KSFO-KPDX

FJA1 :: KSFO-KPDX

FLIGHT INFORMATION

Flight Status: Arrived
Operator: Unknown
More flights by this operator :: More flights under this callsign
Pilot: Jack S. (366)
Aircraft: BOEING 737-200
(B732)
More flights by this aircraft type
Origin: KSFO San Francisco Intl
United States
Destination: KPDX Portland Intl
United States
More flights between these airports :: More routes between these airports
Route: +SFO4 RBL V23 OED MOXEE6
File this flight plan on PilotEdge
Remarks: PBN / A1B2 DOF / 171216 REG / N62890 EET / KZSE0039 OPR / FJA RMK / TCAS SIMBRIEF
Altitude:
(Current/Filed)
30,000ft
Speed:
(Current/Filed)
436kts
Departed: 20-Dec-17 06:16 PM
Arrived: 20-Dec-17 07:44 PM
Distance/Time
Traveled:
478nm/1:28
Distance/Time
To Go:
Arrived

Flight Plot

Page will automatically refresh every two minutes.

Flight plan parsing failed; only flown route is shown


Map Options




Map Legend


Flown Route
Filed Route
Departure Airport
Arrival Airport
Navaid (VOR, NDB)
Fix

Horizontal Profiles

Position Reports

Time Latitude Longitude Heading Altitude Ground
Speed
20-Dec-17 17:44 37.615736 -122.383236 223 21ft 0kts
20-Dec-17 17:45 37.615736 -122.383236 223 21ft 0kts
20-Dec-17 17:46 37.615736 -122.383236 223 21ft 0kts
20-Dec-17 17:47 37.615736 -122.383236 223 21ft 0kts
20-Dec-17 17:48 37.615736 -122.383236 223 21ft 0kts
20-Dec-17 17:49 37.615736 -122.383236 223 21ft 0kts
20-Dec-17 17:50 37.615736 -122.383236 223 21ft 0kts
20-Dec-17 17:51 37.615736 -122.383236 223 21ft 0kts
20-Dec-17 17:52 37.615736 -122.383236 223 21ft 0kts
20-Dec-17 17:53 37.615736 -122.383236 223 21ft 0kts
20-Dec-17 17:54 37.615736 -122.383236 223 21ft 0kts
20-Dec-17 17:55 37.615736 -122.383236 223 21ft 0kts
20-Dec-17 17:56 37.615736 -122.383236 223 21ft 0kts
20-Dec-17 17:57 37.615736 -122.383236 223 21ft 0kts
20-Dec-17 17:58 37.615736 -122.383236 223 21ft 0kts
20-Dec-17 17:59 37.615736 -122.383236 223 21ft 0kts
20-Dec-17 18:00 37.615736 -122.383236 223 21ft 0kts
20-Dec-17 18:01 37.615736 -122.383236 223 21ft 0kts
20-Dec-17 18:02 37.615736 -122.383236 223 21ft 0kts
20-Dec-17 18:03 37.615736 -122.383236 223 21ft 0kts
20-Dec-17 18:04 37.615736 -122.383236 223 21ft 0kts
20-Dec-17 18:05 37.615736 -122.383236 223 21ft 0kts
20-Dec-17 18:06 37.615736 -122.383236 223 21ft 0kts
20-Dec-17 18:07 37.615736 -122.383236 223 21ft 0kts
20-Dec-17 18:08 37.615736 -122.383236 223 21ft 0kts
20-Dec-17 18:09 37.615736 -122.383236 223 21ft 0kts
20-Dec-17 18:10 37.615736 -122.383236 223 21ft 0kts
20-Dec-17 18:11 37.615736 -122.383236 223 21ft 0kts
20-Dec-17 18:12 37.615896 -122.383045 223 21ft 2kts
20-Dec-17 18:13 37.616370 -122.382766 180 21ft 1kts
20-Dec-17 18:14 37.616097 -122.382608 117 21ft 0kts
20-Dec-17 18:15 37.616097 -122.382607 117 21ft 0kts
20-Dec-17 18:16 37.616097 -122.382607 117 21ft 0kts
20-Dec-17 18:17 37.615881 -122.382078 117 21ft 9kts
20-Dec-17 18:18 37.613869 -122.380736 165 21ft 7kts
20-Dec-17 18:19 37.610825 -122.382632 211 21ft 20kts
20-Dec-17 18:20 37.608525 -122.383816 146 21ft 0kts
20-Dec-17 18:21 37.608353 -122.383620 124 21ft 10kts
20-Dec-17 18:22 37.624081 -122.371936 23 126ft 181kts
20-Dec-17 18:23 37.668674 -122.318170 46 3738ft 253kts
20-Dec-17 18:24 37.718730 -122.260746 7 8241ft 249kts
20-Dec-17 18:25 37.790665 -122.250925 3 11273ft 276kts
20-Dec-17 18:26 37.873689 -122.241322 3 13505ft 308kts
20-Dec-17 18:27 37.959631 -122.236109 358 16068ft 314kts
20-Dec-17 18:28 38.047528 -122.236060 357 18309ft 320kts
20-Dec-17 18:29 38.134426 -122.236104 356 20231ft 326kts
20-Dec-17 18:30 38.223534 -122.236242 356 21971ft 332kts
20-Dec-17 18:31 38.315609 -122.236031 356 23519ft 337kts
20-Dec-17 18:32 38.409418 -122.236028 355 24876ft 342kts
20-Dec-17 18:33 38.504962 -122.236154 355 26067ft 347kts
20-Dec-17 18:34 38.601507 -122.235976 355 27110ft 351kts
20-Dec-17 18:35 38.698673 -122.235927 355 28282ft 348kts
20-Dec-17 18:36 38.795983 -122.235992 354 29239ft 348kts
20-Dec-17 18:37 38.892119 -122.235908 354 30186ft 346kts
20-Dec-17 18:38 38.990205 -122.236023 355 30252ft 362kts
20-Dec-17 18:39 39.092251 -122.235960 356 30247ft 374kts
20-Dec-17 18:40 39.192576 -122.235974 356 30264ft 385kts
20-Dec-17 18:41 39.300571 -122.235978 356 30258ft 393kts
20-Dec-17 18:42 39.409028 -122.235890 356 30255ft 389kts
20-Dec-17 18:43 39.515965 -122.235907 356 30254ft 385kts
20-Dec-17 18:44 39.621928 -122.235853 356 30253ft 382kts
20-Dec-17 18:45 39.727256 -122.235878 356 30253ft 380kts
20-Dec-17 18:46 39.832082 -122.235904 356 30251ft 377kts
20-Dec-17 18:47 39.936640 -122.235933 356 30252ft 375kts
20-Dec-17 18:48 40.040316 -122.235928 356 30253ft 373kts
20-Dec-17 18:49 40.137426 -122.236587 350 30264ft 370kts
20-Dec-17 18:50 40.227999 -122.290926 334 30267ft 368kts
20-Dec-17 18:51 40.321291 -122.345194 337 30261ft 369kts
20-Dec-17 18:52 40.416361 -122.394961 338 30255ft 369kts
20-Dec-17 18:53 40.511585 -122.443635 339 30253ft 369kts
20-Dec-17 18:54 40.606971 -122.492235 338 30251ft 368kts
20-Dec-17 18:55 40.702211 -122.540864 338 30249ft 368kts
20-Dec-17 18:56 40.797143 -122.589473 340 30247ft 367kts
20-Dec-17 18:57 40.895513 -122.622615 345 30245ft 367kts
20-Dec-17 18:58 40.992349 -122.654583 343 30249ft 366kts
20-Dec-17 18:59 41.089677 -122.688013 345 30267ft 367kts
20-Dec-17 19:00 41.181184 -122.718090 345 30291ft 372kts
20-Dec-17 19:01 41.280173 -122.750664 345 30289ft 376kts
20-Dec-17 19:02 41.382137 -122.784332 345 30287ft 380kts
20-Dec-17 19:03 41.484318 -122.818289 345 30284ft 381kts
20-Dec-17 19:04 41.589621 -122.830968 354 30285ft 382kts
20-Dec-17 19:05 41.695000 -122.840022 354 30281ft 382kts
20-Dec-17 19:06 41.800932 -122.849697 354 30279ft 382kts
20-Dec-17 19:07 41.906122 -122.859434 354 30279ft 381kts
20-Dec-17 19:08 42.011344 -122.869220 354 30295ft 380kts
20-Dec-17 19:09 42.111576 -122.878527 354 30330ft 379kts
20-Dec-17 19:10 42.213950 -122.888078 354 30335ft 380kts
20-Dec-17 19:11 42.318791 -122.897914 354 30331ft 381kts
20-Dec-17 19:12 42.423455 -122.907773 354 30332ft 382kts
20-Dec-17 19:13 42.528984 -122.911824 2 30343ft 384kts
20-Dec-17 19:14 42.634306 -122.899240 1 30344ft 383kts
20-Dec-17 19:15 42.739851 -122.888549 1 30343ft 382kts
20-Dec-17 19:16 42.845339 -122.878331 1 30342ft 381kts
20-Dec-17 19:17 42.950615 -122.868205 2 30354ft 380kts
20-Dec-17 19:18 43.055403 -122.858099 2 30379ft 378kts
20-Dec-17 19:19 43.135247 -122.850408 2 30398ft 378kts
20-Dec-17 19:20 43.256305 -122.838705 2 30399ft 380kts
20-Dec-17 19:21 43.361530 -122.828464 2 30396ft 381kts
20-Dec-17 19:22 43.466253 -122.818228 2 30394ft 381kts
20-Dec-17 19:23 43.571460 -122.807934 2 30392ft 381kts
20-Dec-17 19:24 43.658968 -122.799326 2 30390ft 381kts
20-Dec-17 19:25 43.764179 -122.788905 2 30388ft 381kts
20-Dec-17 19:26 43.886953 -122.776747 2 30386ft 380kts
20-Dec-17 19:27 43.972886 -122.768202 2 30000ft 361kts
20-Dec-17 19:28 44.077321 -122.757816 3 27166ft 379kts
20-Dec-17 19:29 44.165248 -122.749135 3 24994ft 372kts
20-Dec-17 19:30 44.264301 -122.739173 3 22922ft 362kts
20-Dec-17 19:31 44.361808 -122.727329 3 20890ft 353kts
20-Dec-17 19:32 44.457609 -122.718372 3 19081ft 340kts
20-Dec-17 19:33 44.550172 -122.709515 3 17310ft 332kts
20-Dec-17 19:34 44.641194 -122.700759 3 15620ft 324kts
20-Dec-17 19:35 44.730140 -122.692173 3 13326ft 320kts
20-Dec-17 19:36 44.817584 -122.683711 4 12055ft 311kts
20-Dec-17 19:37 44.896883 -122.676033 4 11988ft 280kts
20-Dec-17 19:38 44.970043 -122.668918 4 12014ft 267kts
20-Dec-17 19:39 45.047424 -122.661299 4 11989ft 276kts
20-Dec-17 19:40 45.116185 -122.654627 4 10911ft 263kts
20-Dec-17 19:41 45.184961 -122.647930 4 9578ft 259kts
20-Dec-17 19:42 45.253105 -122.622342 24 8196ft 256kts
20-Dec-17 19:43 45.316749 -122.578808 24 6841ft 255kts
20-Dec-17 19:44 45.379857 -122.534947 24 5514ft 254kts
20-Dec-17 19:45 45.442866 -122.490966 24 4227ft 253kts
20-Dec-17 19:46 45.503759 -122.450391 8 3181ft 216kts
20-Dec-17 19:47 45.545192 -122.491730 295 1541ft 173kts
20-Dec-17 19:48 45.563496 -122.540557 299 737ft 126kts
20-Dec-17 19:49 45.580501 -122.583983 299 75ft 126kts
20-Dec-17 19:50 45.589234 -122.604658 0 38ft 4kts
20-Dec-17 19:51 45.589568 -122.604469 44 38ft 1kts
20-Dec-17 19:52 45.591367 -122.600003 90 38ft 16kts
20-Dec-17 19:53 45.591360 -122.599124 90 38ft 0kts
20-Dec-17 19:54 45.589856 -122.596778 198 38ft 11kts
20-Dec-17 19:55 45.589607 -122.596923 202 38ft 0kts
20-Dec-17 19:56 45.589607 -122.596923 202 38ft 0kts
20-Dec-17 19:57 45.589607 -122.596923 202 38ft 0kts
20-Dec-17 19:58 45.589607 -122.596923 202 38ft 0kts
20-Dec-17 19:59 45.589607 -122.596923 202 38ft 0kts
20-Dec-17 20:00 45.589607 -122.596923 202 38ft 0kts
20-Dec-17 20:01 45.589607 -122.596923 202 38ft 0kts
20-Dec-17 20:02 45.589607 -122.596923 202 38ft 0kts

Navigation Log

Ident Type
Flight plan parsing failed, navigation log unavailable